CheckWX is a tool to help pilots better visualize weather data.  It is not intended as a substitute for an official pre-flight weather briefing.

23:04:26 UTC

KWHP METAR
Whiteman Airport
Los Angeles, California, USA
Current

9 mins ago

KWHP 242255Z 11007KT 10SM SKC 22/09 A3013
Observed
Feb-24 @ 22:55 UTC
Wind
  • 110° at 7 KTS
Visibility
10 SM
Flight Rules
VFR
Cloud Levels
  • Clear skies
Temperature
22°C / 72°F
Dewpoint
C / 48°F
Humidity
44%
Altimeter
30.13" Hg
Pressure
1020.32 hPa
Previous

1 hour ago

KWHP 242155Z 12008KT 10SM SKC 22/07 A3014
Observed
Feb-24 @ 21:55 UTC
Wind
  • 120° at 8 KTS
Visibility
10 SM
Flight Rules
VFR
Cloud Levels
  • Clear skies
Temperature
22°C / 72°F
Dewpoint
C / 45°F
Humidity
38%
Altimeter
30.14" Hg
Pressure
1020.62 hPa
Previous

2 hours ago

KWHP 242055Z 12007KT 10SM SKC 20/06 A3017
Observed
Feb-24 @ 20:55 UTC
Wind
  • 120° at 7 KTS
Visibility
10 SM
Flight Rules
VFR
Cloud Levels
  • Clear skies
Temperature
20°C / 68°F
Dewpoint
C / 43°F
Humidity
40%
Altimeter
30.17" Hg
Pressure
1021.72 hPa